createdAt,value
2024-05-09T00:14:37.504Z,0.97
2024-05-09T00:44:44.231Z,1.00
2024-05-09T01:14:51.270Z,0.70
2024-05-09T01:44:58.012Z,0.90
2024-05-09T02:15:05.200Z,1.10
2024-05-09T02:45:12.034Z,1.27
2024-05-09T03:15:19.218Z,1.30
2024-05-09T03:45:26.282Z,1.07
2024-05-09T04:15:33.427Z,1.00
2024-05-09T04:45:40.256Z,0.87
2024-05-09T05:15:47.671Z,0.87
2024-05-09T05:45:54.543Z,0.87
2024-05-09T06:16:01.526Z,0.80
2024-05-09T06:46:08.260Z,0.47
2024-05-09T07:16:15.291Z,0.70
2024-05-09T08:16:31.797Z,0.70
2024-05-09T08:46:39.392Z,0.40
2024-05-09T09:16:46.395Z,0.60
2024-05-09T09:46:56.210Z,0.60
2024-05-09T10:17:08.636Z,0.73
2024-05-09T10:47:16.346Z,0.60
2024-05-09T11:17:24.052Z,0.50
2024-05-09T11:47:31.058Z,0.47
2024-05-09T12:17:38.174Z,0.60
2024-05-09T12:47:45.021Z,0.60
2024-05-09T13:17:52.316Z,0.50
2024-05-09T13:47:59.844Z,0.37
2024-05-09T14:18:11.448Z,0.70
2024-05-09T14:48:20.653Z,0.60
2024-05-09T15:18:27.910Z,0.30
2024-05-09T15:48:34.856Z,0.40
2024-05-09T16:18:42.381Z,0.30
2024-05-09T16:48:49.300Z,0.60
2024-05-09T17:18:56.331Z,0.20
2024-05-09T17:49:03.156Z,0.30
2024-05-09T18:19:10.361Z,0.30
2024-05-09T18:49:17.595Z,1.23
2024-05-09T19:19:24.839Z,0.50
2024-05-09T19:49:31.823Z,0.60
2024-05-09T20:19:38.935Z,0.40
2024-05-09T20:49:45.823Z,0.80
2024-05-09T21:19:53.139Z,0.53
2024-05-09T21:49:59.849Z,0.83
2024-05-09T22:20:14.680Z,0.60
2024-05-09T22:50:27.065Z,0.90
2024-05-09T23:20:41.386Z,1.30
2024-05-09T23:50:48.103Z,2.03
